Terminal Aerodrome Forecast
Issued by NWS

Home | Current Version | Previous Version | Graphics & Text | Print | Product List | Glossary On
Versions: 1 2 3 4 5 6 7 8 9 10 11 12 13 14 15 16 17 18 19 20 21
000
FTUS43 KICT 041434 AAB
TAFCNU
TAF AMD
KCNU 041434Z 0415/0512 VRB05KT 5SM BR VCSH BKN005
      TEMPO 0415/0418 BKN015
     FM041800 30006KT P6SM FEW015 SCT050
     FM042000 30005KT P6SM FEW050
     FM050200 VRB04KT P6SM SKC=

USA.gov is the U.S. government's official web portal to all federal, state and local government web resources and services.